Volgoneft-250 — UFQT — position and weather

sailwx.info

Track history (hours):
 
Tides and Currents Weather Stations Pressure Air Temp Water Temp Dewpoint Dewpoint Depression Visibility Wind Speed Wind Dir Waves Ship Positions

Volgoneft-250

Last reported at 2016-Jun-23 04:33 UTC. Time now 2016-Jun-25 16:06 UTC.
Position N 47°07' E 039°28'.

Length 132 m; draft 2.7 m.

Type: Tanker. MMSI: 273340600.

Date/timePositionNaut miles runAvg speedWind from/ knotsBaromVisibWave heightAir tempDewpointWater temp
2016-Jun-23 04:33N 47°07' E 039°28'7 5.2
2016-Jun-23 03:08N 47°06' E 039°17'9 5.6
2016-Jun-23 01:31N 47°04' E 039°04'11 4.9
2016-Jun-22 23:21N 47°04' E 038°49'5 6.3
2016-Jun-22 22:33N 47°02' E 038°42'3 2.0
2016-Jun-22 21:14N 47°02' E 038°38'0 0.0
2016-Jun-22 20:20N 47°02' E 038°38'0 0.0
2016-Jun-22 19:33N 47°02' E 038°38'0 0.1
2016-Jun-22 18:10N 47°02' E 038°38'0 0.1
2016-Jun-22 17:33N 47°02' E 038°38'0 0.0
2016-Jun-22 16:33N 47°02' E 038°38'0 0.0
2016-Jun-22 13:30N 47°02' E 038°38'0 0.0
2016-Jun-22 12:21N 47°02' E 038°38'3 1.3
2016-Jun-22 10:25N 47°00' E 038°35'9 8.1
2016-Jun-22 09:21N 47°00' E 038°22'7 8.3
2016-Jun-22 08:33N 46°60' E 038°12'8 8.4
2016-Jun-22 07:33N 46°56' E 038°01'8 8.2
2016-Jun-22 06:34N 46°54' E 037°50'16 7.4
2016-Jun-22 04:27N 46°47' E 037°29'9 7.6
2016-Jun-22 03:13N 46°38' E 037°25'8 7.5
2016-Jun-22 02:08N 46°30' E 037°21'4 7.8
2016-Jun-22 01:33N 46°26' E 037°18'8 8.0
2016-Jun-22 00:33N 46°19' E 037°14'8 7.9
2016-Jun-21 23:33N 46°11' E 037°10'8 7.8
2016-Jun-21 22:33N 46°04' E 037°06'26 8.0
2016-Jun-21 19:16N 45°39' E 036°53'6 8.0
2016-Jun-21 18:33N 45°34' E 036°50'8 7.6
2016-Jun-21 17:34N 45°27' E 036°45'7 7.3
2016-Jun-21 16:33N 45°21' E 036°40'7 7.0
2016-Jun-21 15:33N 45°19' E 036°30'8 7.3
2016-Jun-21 14:27N 45°11' E 036°28'6 6.7
2016-Jun-21 13:33N 45°06' E 036°35'0 0.0
2016-Jun-21 12:24N 45°06' E 036°35'0 0.0
2016-Jun-21 11:33N 45°06' E 036°35'0 0.0
2016-Jun-21 10:11N 45°06' E 036°35'0 0.0
2016-Jun-21 03:11N 45°06' E 036°35'1 0.2
2016-Jun-20 23:15N 45°07' E 036°34'8 7.6
2016-Jun-20 22:09N 45°14' E 036°28'5 7.7
2016-Jun-20 21:33N 45°18' E 036°30'7 7.1
2016-Jun-20 20:33N 45°21' E 036°39'7 7.4
2016-Jun-20 19:33N 45°28' E 036°44'1 0.9
2016-Jun-20 18:34N 45°28' E 036°44'0 0.0
2016-Jun-20 17:33N 45°28' E 036°44'0 0.0
2016-Jun-20 16:34N 45°28' E 036°44'0 0.0
2016-Jun-20 15:34N 45°28' E 036°44'0 0.0
2016-Jun-20 14:34N 45°28' E 036°44'0 0.0
2016-Jun-20 13:32N 45°28' E 036°44'0 0.0
2016-Jun-20 12:33N 45°28' E 036°44'0 0.0
2016-Jun-20 11:34N 45°28' E 036°44'0 0.0
2016-Jun-20 10:33N 45°28' E 036°44'0 0.0
2016-Jun-20 09:28N 45°28' E 036°44'0 0.0
2016-Jun-20 08:26N 45°28' E 036°44'0 0.0
2016-Jun-20 07:33N 45°28' E 036°44'0 0.0
2016-Jun-20 06:33N 45°28' E 036°44'0 0.0
2016-Jun-20 05:28N 45°28' E 036°44'0 0.0
2016-Jun-20 04:31N 45°28' E 036°44'0 0.0
2016-Jun-20 03:34N 45°28' E 036°44'0 0.0
2016-Jun-20 02:33N 45°28' E 036°44'0 0.0
2016-Jun-20 01:21N 45°28' E 036°44'0 0.0
2016-Jun-20 00:33N 45°28' E 036°44'0 0.0
2016-Jun-19 23:33N 45°28' E 036°44'0 0.0
2016-Jun-19 22:28N 45°28' E 036°44'0 0.0
2016-Jun-19 21:33N 45°28' E 036°44'0 0.0
2016-Jun-19 20:33N 45°28' E 036°44'0 0.0
2016-Jun-19 19:33N 45°28' E 036°44'0 0.0
2016-Jun-19 18:33N 45°28' E 036°44'0 0.0
2016-Jun-19 17:32N 45°28' E 036°44'0 0.0
2016-Jun-19 16:18N 45°28' E 036°44'0 0.0
2016-Jun-19 15:33N 45°28' E 036°44'0 0.0
2016-Jun-19 14:21N 45°28' E 036°44'0 0.0
2016-Jun-19 13:26N 45°28' E 036°44'0 0.0
2016-Jun-19 12:33N 45°28' E 036°44'0 0.0
2016-Jun-19 11:33N 45°28' E 036°44'0 0.0
2016-Jun-19 10:33N 45°28' E 036°44'0 0.0
2016-Jun-19 09:33N 45°28' E 036°44'0 0.0
2016-Jun-19 08:33N 45°28' E 036°44'0 0.0
2016-Jun-19 07:33N 45°28' E 036°44'0 0.0
2016-Jun-19 06:33N 45°28' E 036°44'0 0.0
2016-Jun-19 05:29N 45°28' E 036°44'0 0.0
2016-Jun-19 04:33N 45°28' E 036°44'0 0.0
2016-Jun-19 03:33N 45°28' E 036°44'0 0.0
2016-Jun-19 02:33N 45°28' E 036°44'0 0.0
2016-Jun-19 01:23N 45°28' E 036°44'0 0.0
2016-Jun-19 00:33N 45°28' E 036°44'0 0.0
2016-Jun-18 23:33N 45°28' E 036°44'0 0.0
2016-Jun-18 22:33N 45°28' E 036°44'0 0.0
2016-Jun-18 21:33N 45°28' E 036°44'0 0.0
2016-Jun-18 20:33N 45°28' E 036°44'0 0.0
2016-Jun-18 19:33N 45°28' E 036°44'0 0.0
2016-Jun-18 18:33N 45°28' E 036°44'0 0.0
2016-Jun-18 17:33N 45°28' E 036°44'0 0.0
2016-Jun-18 16:33N 45°28' E 036°44'0 0.0
2016-Jun-18 15:33N 45°28' E 036°44'0 0.0
2016-Jun-18 14:33N 45°28' E 036°44'0 0.0
2016-Jun-18 13:33N 45°28' E 036°44'0 0.0
2016-Jun-18 12:33N 45°28' E 036°44'0 0.0
2016-Jun-18 11:34N 45°28' E 036°44'0 0.0
2016-Jun-18 10:22N 45°28' E 036°44'0 0.0
2016-Jun-18 09:20N 45°28' E 036°44'0 0.0
2016-Jun-18 08:32N 45°28' E 036°44'0 0.0
2016-Jun-18 07:28N 45°28' E 036°44'0 0.0
2016-Jun-18 06:34N 45°28' E 036°44'0 0.0
2016-Jun-18 05:33N 45°28' E 036°44'0 0.1
2016-Jun-18 04:33N 45°28' E 036°44'0 0.0
2016-Jun-18 03:33N 45°28' E 036°44'0 0.0
2016-Jun-18 02:33N 45°28' E 036°44'0 0.0
2016-Jun-18 01:33N 45°28' E 036°44'0 0.0
2016-Jun-18 00:23N 45°28' E 036°44'0 0.1
2016-Jun-17 23:33N 45°29' E 036°44'0 0.0
2016-Jun-17 22:33N 45°28' E 036°44'0 0.0
2016-Jun-17 21:31N 45°28' E 036°44'0 0.0
2016-Jun-17 20:15N 45°28' E 036°44'0 0.0
2016-Jun-17 19:33N 45°28' E 036°44'0 0.0
2016-Jun-17 18:33N 45°28' E 036°44'0 0.0
2016-Jun-17 17:33N 45°28' E 036°44'0 0.0
2016-Jun-17 16:26N 45°28' E 036°44'0 0.0
2016-Jun-17 15:24N 45°28' E 036°44'0 0.0
2016-Jun-17 13:33N 45°28' E 036°44'0 0.0
2016-Jun-17 12:33N 45°28' E 036°44'0 0.0
2016-Jun-17 11:33N 45°28' E 036°44'0 0.0
2016-Jun-17 10:33N 45°28' E 036°44'0 0.0
2016-Jun-17 09:33N 45°28' E 036°44'0 0.0
2016-Jun-17 08:33N 45°28' E 036°44'0 0.0
2016-Jun-17 07:33N 45°28' E 036°44'0 0.0
2016-Jun-17 06:33N 45°28' E 036°44'0 0.0
2016-Jun-17 04:33N 45°28' E 036°44'0 0.0
2016-Jun-17 03:33N 45°28' E 036°44'0 0.0
2016-Jun-17 02:34N 45°28' E 036°44'0 0.0
2016-Jun-17 01:09N 45°28' E 036°44'0 0.0
2016-Jun-17 00:25N 45°28' E 036°44'0 0.0
2016-Jun-16 23:20N 45°28' E 036°44'0 0.0
2016-Jun-16 22:27N 45°28' E 036°44'0 0.0
2016-Jun-16 20:05N 45°28' E 036°44'0 0.0
2016-Jun-16 19:30N 45°28' E 036°44'0 0.0
2016-Jun-16 18:33N 45°28' E 036°44'0 0.0
2016-Jun-16 17:33N 45°28' E 036°44'0 0.0
2016-Jun-16 16:34N 45°28' E 036°44'0 0.0
2016-Jun-16 15:32N 45°28' E 036°44'0 0.0
2016-Jun-16 14:33N 45°28' E 036°44'0 0.0
2016-Jun-16 13:33N 45°28' E 036°44'0 0.0
2016-Jun-16 12:30N 45°29' E 036°44'0 0.0
2016-Jun-16 11:33N 45°29' E 036°44'0 0.0
2016-Jun-16 10:33N 45°28' E 036°44'  
Track history (hours):
 
Tides and Currents Weather Stations Pressure Air Temp Water Temp Dewpoint Dewpoint Depression Visibility Wind Speed Wind Dir Waves Ship Positions

Volgoneft-250

Last reported at 2016-Jun-23 04:33 UTC. Time now 2016-Jun-25 16:06 UTC.
Position N 47°07' E 039°28'.

Length 132 m; draft 2.7 m.

Type: Tanker. MMSI: 273340600.

Date/timePositionNaut miles runAvg speedWind from/ knotsBaromVisibWave heightAir tempDewpointWater temp
2016-Jun-23 04:33N 47°07' E 039°28'7 5.2
2016-Jun-23 03:08N 47°06' E 039°17'9 5.6
2016-Jun-23 01:31N 47°04' E 039°04'11 4.9
2016-Jun-22 23:21N 47°04' E 038°49'5 6.3
2016-Jun-22 22:33N 47°02' E 038°42'3 2.0
2016-Jun-22 21:14N 47°02' E 038°38'0 0.0
2016-Jun-22 20:20N 47°02' E 038°38'0 0.0
2016-Jun-22 19:33N 47°02' E 038°38'0 0.1
2016-Jun-22 18:10N 47°02' E 038°38'0 0.1
2016-Jun-22 17:33N 47°02' E 038°38'0 0.0
2016-Jun-22 16:33N 47°02' E 038°38'0 0.0
2016-Jun-22 13:30N 47°02' E 038°38'0 0.0
2016-Jun-22 12:21N 47°02' E 038°38'3 1.3
2016-Jun-22 10:25N 47°00' E 038°35'9 8.1
2016-Jun-22 09:21N 47°00' E 038°22'7 8.3
2016-Jun-22 08:33N 46°60' E 038°12'8 8.4
2016-Jun-22 07:33N 46°56' E 038°01'8 8.2
2016-Jun-22 06:34N 46°54' E 037°50'16 7.4
2016-Jun-22 04:27N 46°47' E 037°29'9 7.6
2016-Jun-22 03:13N 46°38' E 037°25'8 7.5
2016-Jun-22 02:08N 46°30' E 037°21'4 7.8
2016-Jun-22 01:33N 46°26' E 037°18'8 8.0
2016-Jun-22 00:33N 46°19' E 037°14'8 7.9
2016-Jun-21 23:33N 46°11' E 037°10'8 7.8
2016-Jun-21 22:33N 46°04' E 037°06'26 8.0
2016-Jun-21 19:16N 45°39' E 036°53'6 8.0
2016-Jun-21 18:33N 45°34' E 036°50'8 7.6
2016-Jun-21 17:34N 45°27' E 036°45'7 7.3
2016-Jun-21 16:33N 45°21' E 036°40'7 7.0
2016-Jun-21 15:33N 45°19' E 036°30'8 7.3
2016-Jun-21 14:27N 45°11' E 036°28'6 6.7
2016-Jun-21 13:33N 45°06' E 036°35'0 0.0
2016-Jun-21 12:24N 45°06' E 036°35'0 0.0
2016-Jun-21 11:33N 45°06' E 036°35'0 0.0
2016-Jun-21 10:11N 45°06' E 036°35'0 0.0
2016-Jun-21 03:11N 45°06' E 036°35'1 0.2
2016-Jun-20 23:15N 45°07' E 036°34'8 7.6
2016-Jun-20 22:09N 45°14' E 036°28'5 7.7
2016-Jun-20 21:33N 45°18' E 036°30'7 7.1
2016-Jun-20 20:33N 45°21' E 036°39'7 7.4
2016-Jun-20 19:33N 45°28' E 036°44'1 0.9
2016-Jun-20 18:34N 45°28' E 036°44'0 0.0
2016-Jun-20 17:33N 45°28' E 036°44'0 0.0
2016-Jun-20 16:34N 45°28' E 036°44'0 0.0
2016-Jun-20 15:34N 45°28' E 036°44'0 0.0
2016-Jun-20 14:34N 45°28' E 036°44'0 0.0
2016-Jun-20 13:32N 45°28' E 036°44'0 0.0
2016-Jun-20 12:33N 45°28' E 036°44'0 0.0
2016-Jun-20 11:34N 45°28' E 036°44'0 0.0
2016-Jun-20 10:33N 45°28' E 036°44'0 0.0
2016-Jun-20 09:28N 45°28' E 036°44'0 0.0
2016-Jun-20 08:26N 45°28' E 036°44'0 0.0
2016-Jun-20 07:33N 45°28' E 036°44'0 0.0
2016-Jun-20 06:33N 45°28' E 036°44'0 0.0
2016-Jun-20 05:28N 45°28' E 036°44'0 0.0
2016-Jun-20 04:31N 45°28' E 036°44'0 0.0
2016-Jun-20 03:34N 45°28' E 036°44'0 0.0
2016-Jun-20 02:33N 45°28' E 036°44'0 0.0
2016-Jun-20 01:21N 45°28' E 036°44'0 0.0
2016-Jun-20 00:33N 45°28' E 036°44'0 0.0
2016-Jun-19 23:33N 45°28' E 036°44'0 0.0
2016-Jun-19 22:28N 45°28' E 036°44'0 0.0
2016-Jun-19 21:33N 45°28' E 036°44'0 0.0
2016-Jun-19 20:33N 45°28' E 036°44'0 0.0
2016-Jun-19 19:33N 45°28' E 036°44'0 0.0
2016-Jun-19 18:33N 45°28' E 036°44'0 0.0
2016-Jun-19 17:32N 45°28' E 036°44'0 0.0
2016-Jun-19 16:18N 45°28' E 036°44'0 0.0
2016-Jun-19 15:33N 45°28' E 036°44'0 0.0
2016-Jun-19 14:21N 45°28' E 036°44'0 0.0
2016-Jun-19 13:26N 45°28' E 036°44'0 0.0
2016-Jun-19 12:33N 45°28' E 036°44'0 0.0
2016-Jun-19 11:33N 45°28' E 036°44'0 0.0
2016-Jun-19 10:33N 45°28' E 036°44'0 0.0
2016-Jun-19 09:33N 45°28' E 036°44'0 0.0
2016-Jun-19 08:33N 45°28' E 036°44'0 0.0
2016-Jun-19 07:33N 45°28' E 036°44'0 0.0
2016-Jun-19 06:33N 45°28' E 036°44'0 0.0
2016-Jun-19 05:29N 45°28' E 036°44'0 0.0
2016-Jun-19 04:33N 45°28' E 036°44'0 0.0
2016-Jun-19 03:33N 45°28' E 036°44'0 0.0
2016-Jun-19 02:33N 45°28' E 036°44'0 0.0
2016-Jun-19 01:23N 45°28' E 036°44'0 0.0
2016-Jun-19 00:33N 45°28' E 036°44'0 0.0
2016-Jun-18 23:33N 45°28' E 036°44'0 0.0
2016-Jun-18 22:33N 45°28' E 036°44'0 0.0
2016-Jun-18 21:33N 45°28' E 036°44'0 0.0
2016-Jun-18 20:33N 45°28' E 036°44'0 0.0
2016-Jun-18 19:33N 45°28' E 036°44'0 0.0
2016-Jun-18 18:33N 45°28' E 036°44'0 0.0
2016-Jun-18 17:33N 45°28' E 036°44'0 0.0
2016-Jun-18 16:33N 45°28' E 036°44'0 0.0
2016-Jun-18 15:33N 45°28' E 036°44'0 0.0
2016-Jun-18 14:33N 45°28' E 036°44'0 0.0
2016-Jun-18 13:33N 45°28' E 036°44'0 0.0
2016-Jun-18 12:33N 45°28' E 036°44'0 0.0
2016-Jun-18 11:34N 45°28' E 036°44'0 0.0
2016-Jun-18 10:22N 45°28' E 036°44'0 0.0
2016-Jun-18 09:20N 45°28' E 036°44'0 0.0
2016-Jun-18 08:32N 45°28' E 036°44'0 0.0
2016-Jun-18 07:28N 45°28' E 036°44'0 0.0
2016-Jun-18 06:34N 45°28' E 036°44'0 0.0
2016-Jun-18 05:33N 45°28' E 036°44'0 0.1
2016-Jun-18 04:33N 45°28' E 036°44'0 0.0
2016-Jun-18 03:33N 45°28' E 036°44'0 0.0
2016-Jun-18 02:33N 45°28' E 036°44'0 0.0
2016-Jun-18 01:33N 45°28' E 036°44'0 0.0
2016-Jun-18 00:23N 45°28' E 036°44'0 0.1
2016-Jun-17 23:33N 45°29' E 036°44'0 0.0
2016-Jun-17 22:33N 45°28' E 036°44'0 0.0
2016-Jun-17 21:31N 45°28' E 036°44'0 0.0
2016-Jun-17 20:15N 45°28' E 036°44'0 0.0
2016-Jun-17 19:33N 45°28' E 036°44'0 0.0
2016-Jun-17 18:33N 45°28' E 036°44'0 0.0
2016-Jun-17 17:33N 45°28' E 036°44'0 0.0
2016-Jun-17 16:26N 45°28' E 036°44'0 0.0
2016-Jun-17 15:24N 45°28' E 036°44'0 0.0
2016-Jun-17 13:33N 45°28' E 036°44'0 0.0
2016-Jun-17 12:33N 45°28' E 036°44'0 0.0
2016-Jun-17 11:33N 45°28' E 036°44'0 0.0
2016-Jun-17 10:33N 45°28' E 036°44'0 0.0
2016-Jun-17 09:33N 45°28' E 036°44'0 0.0
2016-Jun-17 08:33N 45°28' E 036°44'0 0.0
2016-Jun-17 07:33N 45°28' E 036°44'0 0.0
2016-Jun-17 06:33N 45°28' E 036°44'0 0.0
2016-Jun-17 04:33N 45°28' E 036°44'0 0.0
2016-Jun-17 03:33N 45°28' E 036°44'0 0.0
2016-Jun-17 02:34N 45°28' E 036°44'0 0.0
2016-Jun-17 01:09N 45°28' E 036°44'0 0.0
2016-Jun-17 00:25N 45°28' E 036°44'0 0.0
2016-Jun-16 23:20N 45°28' E 036°44'0 0.0
2016-Jun-16 22:27N 45°28' E 036°44'0 0.0
2016-Jun-16 20:05N 45°28' E 036°44'0 0.0
2016-Jun-16 19:30N 45°28' E 036°44'0 0.0
2016-Jun-16 18:33N 45°28' E 036°44'0 0.0
2016-Jun-16 17:33N 45°28' E 036°44'0 0.0
2016-Jun-16 16:34N 45°28' E 036°44'0 0.0
2016-Jun-16 15:32N 45°28' E 036°44'0 0.0
2016-Jun-16 14:33N 45°28' E 036°44'0 0.0
2016-Jun-16 13:33N 45°28' E 036°44'0 0.0
2016-Jun-16 12:30N 45°29' E 036°44'0 0.0
2016-Jun-16 11:33N 45°29' E 036°44'0 0.0
2016-Jun-16 10:33N 45°28' E 036°44'  

Dump ship's entire track history